sensor_id;sensor_type;location;lat;lon;timestamp;pressure;altitude;pressure_sealevel;temperature;humidity
31096;BME280;17749;51.962;8.560;2024-02-26T06:01:23;98639.91;;;4.95;100.00
31096;BME280;17749;51.962;8.560;2024-02-26T06:03:51;98640.06;;;4.92;100.00
31096;BME280;17749;51.962;8.560;2024-02-26T06:06:18;98640.91;;;4.92;100.00
31096;BME280;17749;51.962;8.560;2024-02-26T06:08:45;98633.88;;;4.93;100.00
31096;BME280;17749;51.962;8.560;2024-02-26T06:11:12;98636.38;;;4.96;100.00
31096;BME280;17749;51.962;8.560;2024-02-26T06:13:39;98642.38;;;4.99;100.00
31096;BME280;17749;51.962;8.560;2024-02-26T06:16:07;98643.22;;;5.00;100.00
31096;BME280;17749;51.962;8.560;2024-02-26T06:18:34;98641.56;;;4.97;100.00
31096;BME280;17749;51.962;8.560;2024-02-26T06:21:01;98644.47;;;4.91;100.00
31096;BME280;17749;51.962;8.560;2024-02-26T06:23:29;98646.19;;;4.92;100.00
31096;BME280;17749;51.962;8.560;2024-02-26T06:25:55;98653.25;;;4.92;100.00
31096;BME280;17749;51.962;8.560;2024-02-26T06:28:22;98647.28;;;4.87;100.00
31096;BME280;17749;51.962;8.560;2024-02-26T06:30:49;98643.97;;;4.81;100.00
31096;BME280;17749;51.962;8.560;2024-02-26T06:33:17;98651.13;;;4.79;100.00
31096;BME280;17749;51.962;8.560;2024-02-26T06:35:44;98649.63;;;4.72;100.00
31096;BME280;17749;51.962;8.560;2024-02-26T06:38:11;98650.81;;;4.64;100.00
31096;BME280;17749;51.962;8.560;2024-02-26T06:40:40;98668.63;;;4.58;100.00
31096;BME280;17749;51.962;8.560;2024-02-26T06:43:07;98656.59;;;4.51;100.00
31096;BME280;17749;51.962;8.560;2024-02-26T06:45:34;98663.69;;;4.49;100.00
31096;BME280;17749;51.962;8.560;2024-02-26T06:48:01;98662.84;;;4.49;100.00
31096;BME280;17749;51.962;8.560;2024-02-26T06:50:28;98660.25;;;4.47;100.00
31096;BME280;17749;51.962;8.560;2024-02-26T06:52:55;98668.97;;;4.49;100.00
31096;BME280;17749;51.962;8.560;2024-02-26T06:55:21;98675.09;;;4.50;100.00
31096;BME280;17749;51.962;8.560;2024-02-26T06:57:48;98673.38;;;4.49;100.00
31096;BME280;17749;51.962;8.560;2024-02-26T07:00:15;98666.38;;;4.48;100.00
31096;BME280;17749;51.962;8.560;2024-02-26T07:02:43;98668.25;;;4.46;100.00
31096;BME280;17749;51.962;8.560;2024-02-26T07:05:10;98671.03;;;4.41;100.00
31096;BME280;17749;51.962;8.560;2024-02-26T07:07:37;98671.78;;;4.45;100.00
31096;BME280;17749;51.962;8.560;2024-02-26T07:10:04;98674.38;;;4.46;100.00
31096;BME280;17749;51.962;8.560;2024-02-26T07:12:32;98675.34;;;4.44;100.00
31096;BME280;17749;51.962;8.560;2024-02-26T07:14:59;98672.59;;;4.47;100.00
31096;BME280;17749;51.962;8.560;2024-02-26T07:17:27;98675.94;;;4.50;100.00
31096;BME280;17749;51.962;8.560;2024-02-26T07:19:54;98664.34;;;4.56;100.00
31096;BME280;17749;51.962;8.560;2024-02-26T07:22:21;98658.94;;;4.59;100.00
31096;BME280;17749;51.962;8.560;2024-02-26T07:24:48;98667.88;;;4.55;100.00
31096;BME280;17749;51.962;8.560;2024-02-26T07:27:15;98667.88;;;4.55;100.00
31096;BME280;17749;51.962;8.560;2024-02-26T07:29:44;98672.25;;;4.56;100.00
31096;BME280;17749;51.962;8.560;2024-02-26T07:32:11;98676.59;;;4.57;100.00
31096;BME280;17749;51.962;8.560;2024-02-26T07:34:38;98673.03;;;4.58;100.00
31096;BME280;17749;51.962;8.560;2024-02-26T07:37:08;98670.22;;;4.63;100.00
31096;BME280;17749;51.962;8.560;2024-02-26T07:39:35;98668.25;;;4.68;100.00
31096;BME280;17749;51.962;8.560;2024-02-26T07:42:03;98673.41;;;4.71;100.00
31096;BME280;17749;51.962;8.560;2024-02-26T07:44:30;98665.56;;;4.69;100.00
31096;BME280;17749;51.962;8.560;2024-02-26T07:46:57;98673.38;;;4.72;100.00
31096;BME280;17749;51.962;8.560;2024-02-26T07:49:24;98664.31;;;4.79;100.00
31096;BME280;17749;51.962;8.560;2024-02-26T07:51:51;98677.22;;;4.86;100.00
31096;BME280;17749;51.962;8.560;2024-02-26T07:54:18;98683.19;;;4.91;100.00
31096;BME280;17749;51.962;8.560;2024-02-26T07:56:46;98682.06;;;4.96;100.00
31096;BME280;17749;51.962;8.560;2024-02-26T07:59:13;98681.91;;;5.01;100.00
31096;BME280;17749;51.962;8.560;2024-02-26T08:01:40;98693.13;;;5.06;100.00
31096;BME280;17749;51.962;8.560;2024-02-26T08:04:08;98700.78;;;5.12;100.00
31096;BME280;17749;51.962;8.560;2024-02-26T08:06:35;98718.22;;;5.16;100.00
31096;BME280;17749;51.962;8.560;2024-02-26T08:09:04;98723.38;;;5.19;100.00
31096;BME280;17749;51.962;8.560;2024-02-26T08:11:31;98726.69;;;5.24;100.00
31096;BME280;17749;51.962;8.560;2024-02-26T08:13:58;98727.41;;;5.28;100.00
31096;BME280;17749;51.962;8.560;2024-02-26T08:16:25;98733.41;;;5.32;100.00
31096;BME280;17749;51.962;8.560;2024-02-26T08:18:53;98741.16;;;5.36;100.00
31096;BME280;17749;51.962;8.560;2024-02-26T08:21:20;98742.81;;;5.39;100.00
31096;BME280;17749;51.962;8.560;2024-02-26T08:23:47;98743.63;;;5.41;100.00
31096;BME280;17749;51.962;8.560;2024-02-26T08:26:14;98747.06;;;5.43;100.00
31096;BME280;17749;51.962;8.560;2024-02-26T08:28:40;98745.09;;;5.48;100.00
31096;BME280;17749;51.962;8.560;2024-02-26T08:31:07;98751.72;;;5.58;100.00
31096;BME280;17749;51.962;8.560;2024-02-26T08:33:34;98756.75;;;5.64;100.00
31096;BME280;17749;51.962;8.560;2024-02-26T08:36:05;98758.25;;;5.70;100.00
31096;BME280;17749;51.962;8.560;2024-02-26T08:38:32;98758.78;;;5.78;100.00
31096;BME280;17749;51.962;8.560;2024-02-26T08:41:01;98756.81;;;5.83;100.00
31096;BME280;17749;51.962;8.560;2024-02-26T08:43:29;98762.63;;;5.91;100.00
31096;BME280;17749;51.962;8.560;2024-02-26T08:45:57;98759.84;;;5.96;100.00
31096;BME280;17749;51.962;8.560;2024-02-26T08:48:24;98767.44;;;6.04;100.00
31096;BME280;17749;51.962;8.560;2024-02-26T08:50:51;98768.28;;;6.04;100.00
31096;BME280;17749;51.962;8.560;2024-02-26T08:53:19;98770.69;;;6.10;100.00
31096;BME280;17749;51.962;8.560;2024-02-26T08:55:57;98768.69;;;6.15;100.00
31096;BME280;17749;51.962;8.560;2024-02-26T08:58:24;98777.41;;;6.18;100.00
31096;BME280;17749;51.962;8.560;2024-02-26T09:00:51;98779.81;;;6.24;100.00
31096;BME280;17749;51.962;8.560;2024-02-26T09:03:18;98781.22;;;6.31;100.00
31096;BME280;17749;51.962;8.560;2024-02-26T09:05:45;98779.19;;;6.38;100.00
31096;BME280;17749;51.962;8.560;2024-02-26T09:08:11;98780.97;;;6.37;100.00
31096;BME280;17749;51.962;8.560;2024-02-26T09:10:39;98784.13;;;6.45;100.00
31096;BME280;17749;51.962;8.560;2024-02-26T09:13:06;98780.38;;;6.51;100.00
31096;BME280;17749;51.962;8.560;2024-02-26T09:15:33;98784.47;;;6.58;100.00
31096;BME280;17749;51.962;8.560;2024-02-26T09:18:00;98782.53;;;6.62;100.00
31096;BME280;17749;51.962;8.560;2024-02-26T09:20:27;98787.66;;;6.65;100.00
31096;BME280;17749;51.962;8.560;2024-02-26T09:22:53;98787.53;;;6.68;100.00
31096;BME280;17749;51.962;8.560;2024-02-26T09:25:20;98773.44;;;6.67;100.00
31096;BME280;17749;51.962;8.560;2024-02-26T09:27:47;98780.13;;;6.76;100.00
31096;BME280;17749;51.962;8.560;2024-02-26T09:30:14;98788.69;;;6.81;100.00
31096;BME280;17749;51.962;8.560;2024-02-26T09:32:45;98788.41;;;6.87;100.00
31096;BME280;17749;51.962;8.560;2024-02-26T09:35:13;98788.34;;;6.89;100.00
31096;BME280;17749;51.962;8.560;2024-02-26T09:37:39;98786.44;;;6.92;100.00
31096;BME280;17749;51.962;8.560;2024-02-26T09:40:06;98779.41;;;6.91;100.00
31096;BME280;17749;51.962;8.560;2024-02-26T09:42:33;98785.13;;;7.01;100.00
31096;BME280;17749;51.962;8.560;2024-02-26T09:45:03;98784.28;;;7.00;100.00
31096;BME280;17749;51.962;8.560;2024-02-26T09:47:33;98777.25;;;6.99;100.00
31096;BME280;17749;51.962;8.560;2024-02-26T09:50:02;98780.69;;;7.01;100.00
31096;BME280;17749;51.962;8.560;2024-02-26T09:52:30;98778.69;;;7.07;100.00
31096;BME280;17749;51.962;8.560;2024-02-26T09:54:57;98772.03;;;7.17;100.00
31096;BME280;17749;51.962;8.560;2024-02-26T09:57:24;98774.31;;;7.24;100.00
31096;BME280;17749;51.962;8.560;2024-02-26T09:59:53;98775.09;;;7.27;100.00
31096;BME280;17749;51.962;8.560;2024-02-26T10:02:20;98783.84;;;7.29;100.00
31096;BME280;17749;51.962;8.560;2024-02-26T10:04:48;98791.53;;;7.33;100.00
31096;BME280;17749;51.962;8.560;2024-02-26T10:07:18;98798.13;;;7.43;100.00
31096;BME280;17749;51.962;8.560;2024-02-26T10:09:45;98796.84;;;7.52;100.00
31096;BME280;17749;51.962;8.560;2024-02-26T10:12:12;98802.53;;;7.62;100.00
31096;BME280;17749;51.962;8.560;2024-02-26T10:14:39;98805.13;;;7.63;100.00
31096;BME280;17749;51.962;8.560;2024-02-26T10:17:06;98803.16;;;7.67;100.00
31096;BME280;17749;51.962;8.560;2024-02-26T10:19:35;98815.97;;;7.76;100.00
31096;BME280;17749;51.962;8.560;2024-02-26T10:22:06;98819.69;;;7.72;100.00
31096;BME280;17749;51.962;8.560;2024-02-26T10:26:26;98819.25;;;7.81;100.00
31096;BME280;17749;51.962;8.560;2024-02-26T10:28:53;98822.81;;;7.80;100.00
31096;BME280;17749;51.962;8.560;2024-02-26T10:31:26;98831.72;;;7.79;100.00
31096;BME280;17749;51.962;8.560;2024-02-26T10:33:55;98835.63;;;7.89;100.00
31096;BME280;17749;51.962;8.560;2024-02-26T10:36:25;98834.44;;;7.78;100.00
31096;BME280;17749;51.962;8.560;2024-02-26T10:39:07;98837.88;;;7.80;100.00
31096;BME280;17749;51.962;8.560;2024-02-26T10:41:34;98838.06;;;7.94;100.00
31096;BME280;17749;51.962;8.560;2024-02-26T10:44:01;98836.44;;;7.92;100.00
31096;BME280;17749;51.962;8.560;2024-02-26T10:46:28;98852.31;;;7.92;100.00
31096;BME280;17749;51.962;8.560;2024-02-26T10:48:56;98841.25;;;8.01;100.00
31096;BME280;17749;51.962;8.560;2024-02-26T10:51:26;98848.66;;;8.11;100.00
31096;BME280;17749;51.962;8.560;2024-02-26T10:53:58;98853.13;;;8.11;100.00
31096;BME280;17749;51.962;8.560;2024-02-26T10:56:29;98856.72;;;8.10;100.00
31096;BME280;17749;51.962;8.560;2024-02-26T10:58:57;98859.22;;;8.13;100.00
31096;BME280;17749;51.962;8.560;2024-02-26T11:01:25;98862.41;;;8.20;100.00
31096;BME280;17749;51.962;8.560;2024-02-26T11:03:55;98857.66;;;8.26;100.00
31096;BME280;17749;51.962;8.560;2024-02-26T11:06:22;98860.94;;;8.31;100.00
31096;BME280;17749;51.962;8.560;2024-02-26T11:08:50;98866.94;;;8.35;100.00
31096;BME280;17749;51.962;8.560;2024-02-26T11:11:17;98867.03;;;8.33;100.00
31096;BME280;17749;51.962;8.560;2024-02-26T11:13:46;98880.00;;;8.40;100.00
31096;BME280;17749;51.962;8.560;2024-02-26T11:16:20;98864.09;;;8.40;100.00
31096;BME280;17749;51.962;8.560;2024-02-26T11:18:48;98868.66;;;8.36;100.00
31096;BME280;17749;51.962;8.560;2024-02-26T11:21:16;98868.03;;;8.31;100.00
31096;BME280;17749;51.962;8.560;2024-02-26T11:23:46;98873.41;;;8.29;100.00
31096;BME280;17749;51.962;8.560;2024-02-26T11:26:14;98876.69;;;8.34;100.00
31096;BME280;17749;51.962;8.560;2024-02-26T11:28:43;98883.63;;;8.37;100.00
31096;BME280;17749;51.962;8.560;2024-02-26T11:31:12;98881.84;;;8.38;100.00
31096;BME280;17749;51.962;8.560;2024-02-26T11:33:39;98884.31;;;8.42;100.00
31096;BME280;17749;51.962;8.560;2024-02-26T11:36:11;98887.00;;;8.41;100.00
31096;BME280;17749;51.962;8.560;2024-02-26T11:38:39;98888.59;;;8.45;100.00
31096;BME280;17749;51.962;8.560;2024-02-26T11:41:07;98887.81;;;8.43;100.00
31096;BME280;17749;51.962;8.560;2024-02-26T11:46:39;98885.00;;;8.46;100.00
31096;BME280;17749;51.962;8.560;2024-02-26T11:51:57;98879.28;;;8.36;100.00
31096;BME280;17749;51.962;8.560;2024-02-26T11:54:40;98880.69;;;8.26;100.00
31096;BME280;17749;51.962;8.560;2024-02-26T11:57:29;98871.38;;;8.17;100.00
31096;BME280;17749;51.962;8.560;2024-02-26T12:02:50;98867.41;;;8.26;100.00
31096;BME280;17749;51.962;8.560;2024-02-26T12:05:24;98868.22;;;8.28;100.00
31096;BME280;17749;51.962;8.560;2024-02-26T12:07:55;98876.00;;;8.31;100.00
31096;BME280;17749;51.962;8.560;2024-02-26T12:10:25;98876.50;;;8.39;100.00
31096;BME280;17749;51.962;8.560;2024-02-26T12:13:06;98887.50;;;8.49;100.00
31096;BME280;17749;51.962;8.560;2024-02-26T12:15:43;98884.59;;;8.53;100.00
31096;BME280;17749;51.962;8.560;2024-02-26T12:18:15;98895.63;;;8.63;100.00
31096;BME280;17749;51.962;8.560;2024-02-26T12:20:43;98899.59;;;8.54;100.00
31096;BME280;17749;51.962;8.560;2024-02-26T12:23:17;98896.84;;;8.56;100.00
31096;BME280;17749;51.962;8.560;2024-02-26T12:25:44;98891.25;;;8.62;100.00
31096;BME280;17749;51.962;8.560;2024-02-26T12:28:15;98896.22;;;8.51;100.00
31096;BME280;17749;51.962;8.560;2024-02-26T12:30:42;98894.59;;;8.48;100.00
31096;BME280;17749;51.962;8.560;2024-02-26T12:33:09;98890.28;;;8.46;100.00
31096;BME280;17749;51.962;8.560;2024-02-26T12:35:36;98892.19;;;8.44;100.00
31096;BME280;17749;51.962;8.560;2024-02-26T12:38:03;98899.03;;;8.48;100.00
31096;BME280;17749;51.962;8.560;2024-02-26T12:40:31;98900.69;;;8.50;100.00
31096;BME280;17749;51.962;8.560;2024-02-26T12:42:58;98904.91;;;8.54;100.00
31096;BME280;17749;51.962;8.560;2024-02-26T12:45:25;98906.22;;;8.46;100.00
31096;BME280;17749;51.962;8.560;2024-02-26T12:47:53;98901.50;;;8.33;100.00
31096;BME280;17749;51.962;8.560;2024-02-26T12:50:20;98908.66;;;8.14;100.00
31096;BME280;17749;51.962;8.560;2024-02-26T12:52:47;98913.78;;;8.00;100.00
31096;BME280;17749;51.962;8.560;2024-02-26T12:55:16;98921.38;;;7.88;100.00
31096;BME280;17749;51.962;8.560;2024-02-26T12:57:45;98930.97;;;7.91;100.00
31096;BME280;17749;51.962;8.560;2024-02-26T13:00:15;98925.13;;;7.84;100.00
31096;BME280;17749;51.962;8.560;2024-02-26T13:02:43;98926.19;;;7.80;100.00
31096;BME280;17749;51.962;8.560;2024-02-26T13:05:13;98932.56;;;7.76;100.00
31096;BME280;17749;51.962;8.560;2024-02-26T13:07:42;98936.03;;;7.78;100.00
31096;BME280;17749;51.962;8.560;2024-02-26T13:10:10;98929.13;;;7.74;100.00
31096;BME280;17749;51.962;8.560;2024-02-26T13:12:43;98930.56;;;7.81;100.00
31096;BME280;17749;51.962;8.560;2024-02-26T13:15:17;98932.84;;;7.70;100.00
31096;BME280;17749;51.962;8.560;2024-02-26T13:17:45;98930.13;;;7.72;100.00
31096;BME280;17749;51.962;8.560;2024-02-26T13:20:13;98943.31;;;7.73;100.00
31096;BME280;17749;51.962;8.560;2024-02-26T13:22:51;98945.69;;;7.60;100.00
31096;BME280;17749;51.962;8.560;2024-02-26T13:25:21;98951.34;;;7.53;100.00
31096;BME280;17749;51.962;8.560;2024-02-26T13:27:48;98957.63;;;7.50;100.00
31096;BME280;17749;51.962;8.560;2024-02-26T13:30:15;98964.78;;;7.48;100.00
31096;BME280;17749;51.962;8.560;2024-02-26T13:32:42;98956.03;;;7.46;100.00
31096;BME280;17749;51.962;8.560;2024-02-26T13:35:11;98959.47;;;7.48;100.00
31096;BME280;17749;51.962;8.560;2024-02-26T13:37:40;98957.78;;;7.47;100.00
31096;BME280;17749;51.962;8.560;2024-02-26T13:40:10;98945.25;;;7.51;100.00
31096;BME280;17749;51.962;8.560;2024-02-26T13:42:38;98953.19;;;7.51;100.00
31096;BME280;17749;51.962;8.560;2024-02-26T13:45:06;98940.88;;;7.50;100.00
31096;BME280;17749;51.962;8.560;2024-02-26T13:47:37;98962.34;;;7.43;100.00
31096;BME280;17749;51.962;8.560;2024-02-26T13:50:04;98953.63;;;7.41;100.00
31096;BME280;17749;51.962;8.560;2024-02-26T13:52:32;98970.38;;;7.42;100.00
31096;BME280;17749;51.962;8.560;2024-02-26T13:54:59;98970.44;;;7.40;100.00
31096;BME280;17749;51.962;8.560;2024-02-26T13:57:26;98981.22;;;7.36;100.00
31096;BME280;17749;51.962;8.560;2024-02-26T13:59:54;98985.66;;;7.35;100.00
31096;BME280;17749;51.962;8.560;2024-02-26T14:02:21;98980.38;;;7.35;100.00
31096;BME280;17749;51.962;8.560;2024-02-26T14:04:49;98983.81;;;7.37;100.00
31096;BME280;17749;51.962;8.560;2024-02-26T14:07:15;98991.09;;;7.32;100.00
31096;BME280;17749;51.962;8.560;2024-02-26T14:09:46;98992.69;;;7.36;100.00
31096;BME280;17749;51.962;8.560;2024-02-26T14:12:16;98997.19;;;7.34;100.00
31096;BME280;17749;51.962;8.560;2024-02-26T14:14:48;99014.78;;;7.35;100.00
31096;BME280;17749;51.962;8.560;2024-02-26T14:17:15;99015.59;;;7.37;100.00
31096;BME280;17749;51.962;8.560;2024-02-26T14:19:42;99013.75;;;7.39;100.00
31096;BME280;17749;51.962;8.560;2024-02-26T14:22:11;99022.59;;;7.38;100.00
31096;BME280;17749;51.962;8.560;2024-02-26T14:24:38;99020.94;;;7.36;100.00
31096;BME280;17749;51.962;8.560;2024-02-26T14:27:10;99035.19;;;7.33;100.00
31096;BME280;17749;51.962;8.560;2024-02-26T14:29:41;99043.13;;;7.33;100.00
31096;BME280;17749;51.962;8.560;2024-02-26T14:32:10;99037.91;;;7.32;100.00
31096;BME280;17749;51.962;8.560;2024-02-26T14:34:37;99038.91;;;7.29;100.00
31096;BME280;17749;51.962;8.560;2024-02-26T14:37:04;99030.16;;;7.27;100.00
31096;BME280;17749;51.962;8.560;2024-02-26T14:39:32;99044.44;;;7.23;100.00
31096;BME280;17749;51.962;8.560;2024-02-26T14:42:00;99040.03;;;7.23;100.00
31096;BME280;17749;51.962;8.560;2024-02-26T14:44:27;99049.63;;;7.26;100.00
31096;BME280;17749;51.962;8.560;2024-02-26T14:46:54;99050.41;;;7.28;100.00
31096;BME280;17749;51.962;8.560;2024-02-26T14:49:21;99060.09;;;7.29;100.00
31096;BME280;17749;51.962;8.560;2024-02-26T14:51:48;99057.25;;;7.34;100.00
31096;BME280;17749;51.962;8.560;2024-02-26T14:54:15;99066.97;;;7.33;100.00
31096;BME280;17749;51.962;8.560;2024-02-26T14:56:42;99060.75;;;7.34;100.00
31096;BME280;17749;51.962;8.560;2024-02-26T14:59:09;99065.13;;;7.35;100.00
31096;BME280;17749;51.962;8.560;2024-02-26T15:01:36;99072.19;;;7.35;100.00
31096;BME280;17749;51.962;8.560;2024-02-26T15:04:03;99082.75;;;7.36;100.00
31096;BME280;17749;51.962;8.560;2024-02-26T15:06:31;99081.94;;;7.34;100.00
31096;BME280;17749;51.962;8.560;2024-02-26T15:08:58;99079.22;;;7.36;100.00
31096;BME280;17749;51.962;8.560;2024-02-26T15:11:24;99099.63;;;7.34;100.00
31096;BME280;17749;51.962;8.560;2024-02-26T15:13:51;99104.84;;;7.35;100.00
31096;BME280;17749;51.962;8.560;2024-02-26T15:16:20;99105.78;;;7.34;100.00
31096;BME280;17749;51.962;8.560;2024-02-26T15:18:50;99110.22;;;7.34;100.00
31096;BME280;17749;51.962;8.560;2024-02-26T15:21:17;99108.63;;;7.30;100.00
31096;BME280;17749;51.962;8.560;2024-02-26T15:23:44;99097.16;;;7.29;100.00
31096;BME280;17749;51.962;8.560;2024-02-26T15:26:30;99088.56;;;7.24;100.00
31096;BME280;17749;51.962;8.560;2024-02-26T15:28:57;99109.88;;;7.21;100.00
31096;BME280;17749;51.962;8.560;2024-02-26T15:31:24;99104.09;;;7.11;100.00
31096;BME280;17749;51.962;8.560;2024-02-26T15:33:51;99105.69;;;7.15;100.00
31096;BME280;17749;51.962;8.560;2024-02-26T15:36:18;99103.25;;;7.11;100.00
31096;BME280;17749;51.962;8.560;2024-02-26T15:38:45;99117.38;;;7.10;100.00
31096;BME280;17749;51.962;8.560;2024-02-26T15:41:12;99108.44;;;7.12;100.00
31096;BME280;17749;51.962;8.560;2024-02-26T15:43:40;99113.69;;;7.14;100.00
31096;BME280;17749;51.962;8.560;2024-02-26T15:46:07;99112.00;;;7.13;100.00
31096;BME280;17749;51.962;8.560;2024-02-26T15:48:37;99119.13;;;7.11;100.00
31096;BME280;17749;51.962;8.560;2024-02-26T15:51:05;99119.97;;;7.11;100.00
31096;BME280;17749;51.962;8.560;2024-02-26T15:53:32;99116.47;;;7.11;100.00
31096;BME280;17749;51.962;8.560;2024-02-26T15:55:59;99114.72;;;7.10;100.00
31096;BME280;17749;51.962;8.560;2024-02-26T15:58:26;99117.28;;;7.13;100.00
31096;BME280;17749;51.962;8.560;2024-02-26T16:00:53;99116.22;;;7.17;100.00
31096;BME280;17749;51.962;8.560;2024-02-26T16:03:22;99122.31;;;7.19;100.00
31096;BME280;17749;51.962;8.560;2024-02-26T16:05:49;99118.84;;;7.17;100.00
31096;BME280;17749;51.962;8.560;2024-02-26T16:08:19;99128.47;;;7.19;100.00
31096;BME280;17749;51.962;8.560;2024-02-26T16:10:48;99126.75;;;7.18;100.00
31096;BME280;17749;51.962;8.560;2024-02-26T16:13:15;99124.97;;;7.19;100.00
31096;BME280;17749;51.962;8.560;2024-02-26T16:16:00;99118.84;;;7.17;100.00
31096;BME280;17749;51.962;8.560;2024-02-26T16:18:29;99127.75;;;7.16;100.00
31096;BME280;17749;51.962;8.560;2024-02-26T16:20:56;99130.38;;;7.16;100.00
31096;BME280;17749;51.962;8.560;2024-02-26T16:23:24;99145.34;;;7.17;100.00
31096;BME280;17749;51.962;8.560;2024-02-26T16:25:51;99141.03;;;7.14;100.00
31096;BME280;17749;51.962;8.560;2024-02-26T16:28:18;99146.28;;;7.16;100.00
31096;BME280;17749;51.962;8.560;2024-02-26T16:30:48;99152.41;;;7.16;100.00
31096;BME280;17749;51.962;8.560;2024-02-26T16:33:15;99148.75;;;7.20;100.00
31096;BME280;17749;51.962;8.560;2024-02-26T16:35:43;99154.94;;;7.19;100.00
31096;BME280;17749;51.962;8.560;2024-02-26T16:38:10;99159.25;;;7.22;100.00
31096;BME280;17749;51.962;8.560;2024-02-26T16:40:40;99162.84;;;7.21;100.00
31096;BME280;17749;51.962;8.560;2024-02-26T16:43:08;99168.13;;;7.21;100.00
31096;BME280;17749;51.962;8.560;2024-02-26T16:45:35;99169.97;;;7.19;100.00
31096;BME280;17749;51.962;8.560;2024-02-26T16:48:02;99169.97;;;7.19;100.00
31096;BME280;17749;51.962;8.560;2024-02-26T16:50:31;99167.31;;;7.19;100.00
31096;BME280;17749;51.962;8.560;2024-02-26T16:52:58;99171.81;;;7.17;100.00
31096;BME280;17749;51.962;8.560;2024-02-26T16:55:25;99174.59;;;7.14;100.00
31096;BME280;17749;51.962;8.560;2024-02-26T16:57:54;99186.13;;;7.13;100.00
31096;BME280;17749;51.962;8.560;2024-02-26T17:00:23;99189.66;;;7.12;100.00
31096;BME280;17749;51.962;8.560;2024-02-26T17:02:50;99204.66;;;7.13;100.00
31096;BME280;17749;51.962;8.560;2024-02-26T17:05:19;99195.09;;;7.09;100.00
31096;BME280;17749;51.962;8.560;2024-02-26T17:07:46;99204.03;;;7.06;100.00
31096;BME280;17749;51.962;8.560;2024-02-26T17:10:13;99196.03;;;7.08;100.00
31096;BME280;17749;51.962;8.560;2024-02-26T17:12:41;99209.19;;;7.09;100.00
31096;BME280;17749;51.962;8.560;2024-02-26T17:15:08;99221.56;;;7.09;100.00
31096;BME280;17749;51.962;8.560;2024-02-26T17:17:35;99225.94;;;7.10;100.00
31096;BME280;17749;51.962;8.560;2024-02-26T17:20:03;99217.13;;;7.09;100.00
31096;BME280;17749;51.962;8.560;2024-02-26T17:22:31;99234.81;;;7.09;100.00
31096;BME280;17749;51.962;8.560;2024-02-26T17:24:58;99231.34;;;7.07;100.00
31096;BME280;17749;51.962;8.560;2024-02-26T17:27:25;99234.00;;;7.07;100.00
31096;BME280;17749;51.962;8.560;2024-02-26T17:29:52;99239.41;;;7.03;100.00
31096;BME280;17749;51.962;8.560;2024-02-26T17:32:19;99241.13;;;7.05;100.00
31096;BME280;17749;51.962;8.560;2024-02-26T17:34:46;99258.75;;;7.06;100.00
31096;BME280;17749;51.962;8.560;2024-02-26T17:37:15;99249.03;;;7.06;100.00
31096;BME280;17749;51.962;8.560;2024-02-26T17:39:42;99248.16;;;7.06;100.00
31096;BME280;17749;51.962;8.560;2024-02-26T17:42:09;99257.00;;;7.05;100.00
31096;BME280;17749;51.962;8.560;2024-02-26T17:44:37;99257.09;;;7.03;100.00
31096;BME280;17749;51.962;8.560;2024-02-26T17:47:05;99272.84;;;7.06;100.00
31096;BME280;17749;51.962;8.560;2024-02-26T17:49:32;99271.91;;;7.07;100.00
31096;BME280;17749;51.962;8.560;2024-02-26T17:52:00;99283.41;;;7.08;100.00
31096;BME280;17749;51.962;8.560;2024-02-26T17:54:27;99281.53;;;7.10;100.00
31096;BME280;17749;51.962;8.560;2024-02-26T17:56:56;99308.88;;;7.10;100.00
31096;BME280;17749;51.962;8.560;2024-02-26T17:59:24;99306.16;;;7.12;100.00
31096;BME280;17749;51.962;8.560;2024-02-26T18:01:54;99304.44;;;7.11;100.00
31096;BME280;17749;51.962;8.560;2024-02-26T18:04:20;99314.91;;;7.14;100.00
31096;BME280;17749;51.962;8.560;2024-02-26T18:06:47;99307.03;;;7.12;100.00
31096;BME280;17749;51.962;8.560;2024-02-26T18:09:15;99325.63;;;7.11;100.00
31096;BME280;17749;51.962;8.560;2024-02-26T18:11:44;99340.47;;;7.15;100.00
31096;BME280;17749;51.962;8.560;2024-02-26T18:14:12;99343.09;;;7.15;100.00
31096;BME280;17749;51.962;8.560;2024-02-26T18:16:39;99344.97;;;7.13;100.00
31096;BME280;17749;51.962;8.560;2024-02-26T18:19:05;99358.13;;;7.14;100.00
31096;BME280;17749;51.962;8.560;2024-02-26T18:21:33;99360.94;;;7.10;100.00
31096;BME280;17749;51.962;8.560;2024-02-26T18:24:00;99346.81;;;7.11;100.00
31096;BME280;17749;51.962;8.560;2024-02-26T18:26:28;99360.16;;;7.08;100.00
31096;BME280;17749;51.962;8.560;2024-02-26T18:28:55;99360.94;;;7.10;100.00
31096;BME280;17749;51.962;8.560;2024-02-26T18:31:22;99361.84;;;7.10;100.00
31096;BME280;17749;51.962;8.560;2024-02-26T18:33:49;99368.97;;;7.08;100.00
31096;BME280;17749;51.962;8.560;2024-02-26T18:36:16;99380.41;;;7.09;100.00
31096;BME280;17749;51.962;8.560;2024-02-26T18:38:50;99387.53;;;7.07;100.00
31096;BME280;17749;51.962;8.560;2024-02-26T18:41:21;99383.88;;;7.11;100.00
31096;BME280;17749;51.962;8.560;2024-02-26T18:43:51;99392.69;;;7.11;100.00
31096;BME280;17749;51.962;8.560;2024-02-26T18:46:18;99380.41;;;7.09;100.00
31096;BME280;17749;51.962;8.560;2024-02-26T18:48:45;99391.94;;;7.08;100.00
31096;BME280;17749;51.962;8.560;2024-02-26T18:51:12;99393.69;;;7.07;100.00
31096;BME280;17749;51.962;8.560;2024-02-26T18:53:39;99396.41;;;7.06;100.00
31096;BME280;17749;51.962;8.560;2024-02-26T18:56:08;99407.00;;;7.06;100.00
31096;BME280;17749;51.962;8.560;2024-02-26T18:58:35;99406.16;;;7.05;100.00
31096;BME280;17749;51.962;8.560;2024-02-26T19:01:02;99414.13;;;7.03;100.00
31096;BME280;17749;51.962;8.560;2024-02-26T19:03:30;99415.06;;;7.02;100.00
31096;BME280;17749;51.962;8.560;2024-02-26T19:05:57;99426.53;;;7.03;100.00
31096;BME280;17749;51.962;8.560;2024-02-26T19:08:25;99430.13;;;7.00;100.00
31096;BME280;17749;51.962;8.560;2024-02-26T19:10:55;99431.84;;;7.01;100.00
31096;BME280;17749;51.962;8.560;2024-02-26T19:13:22;99438.00;;;7.02;100.00
31096;BME280;17749;51.962;8.560;2024-02-26T19:15:49;99446.03;;;7.00;100.00